Time;durP1;ratioP1;P1;durP2;ratioP2;P2;SDS_P1;SDS_P2;PMS_P1;PMS_P2;Temp;Humidity;BMP_temperature;BMP_pressure;BME280_temperature;BME280_humidity;BME280_pressure;Samples;Min_cycle;Max_cycle;Signal;HPM_P1;HPM_P2
2022/01/26 00:00:56;;;;;;;25.00;15.30;;;;;;;1.82;100.00;99668.42;2181071;81;21019;-81
2022/01/26 00:07:02;;;;;;;20.92;13.72;;;;;;;1.80;100.00;99666.41;2184238;81;21115;-81
2022/01/26 00:10:02;;;;;;;21.93;14.47;;;;;;;1.80;100.00;99671.11;2184204;81;20991;-81
2022/01/26 00:13:03;;;;;;;21.82;13.48;;;;;;;1.82;100.00;99661.96;2184170;81;21592;-81
2022/01/26 00:16:08;;;;;;;18.25;12.00;;;;;;;1.84;100.00;99660.13;2183844;81;21095;-81
2022/01/26 00:19:08;;;;;;;21.50;13.68;;;;;;;1.84;100.00;99660.13;2183866;81;21051;-81
2022/01/26 00:22:09;;;;;;;17.55;11.83;;;;;;;1.81;100.00;99656.44;2184185;81;21042;-81
2022/01/26 00:38:35;;;;;;;16.30;10.18;;;;;;;1.82;100.00;99649.87;2184048;81;21006;-80
2022/01/26 00:41:37;;;;;;;15.23;10.45;;;;;;;1.77;100.00;99642.91;2184205;81;21054;-81
2022/01/26 00:44:43;;;;;;;20.30;12.55;;;;;;;1.76;100.00;99652.88;2184182;81;21078;-80
2022/01/26 00:47:40;;;;;;;17.07;11.45;;;;;;;1.73;100.00;99656.94;2184477;81;21090;-80
2022/01/26 00:50:49;;;;;;;16.77;12.30;;;;;;;1.74;100.00;99647.44;2186798;81;21041;-81
2022/01/26 00:53:45;;;;;;;16.70;11.33;;;;;;;1.71;100.00;99657.05;2185303;81;21508;-81
2022/01/26 00:56:46;;;;;;;19.98;13.28;;;;;;;1.69;100.00;99649.05;2186827;81;21063;-81
2022/01/26 00:59:47;;;;;;;17.95;11.60;;;;;;;1.68;100.00;99650.80;2186727;81;20967;-80
2022/01/26 01:02:47;;;;;;;20.77;13.03;;;;;;;1.68;100.00;99648.22;2186806;81;21050;-81
2022/01/26 01:08:49;;;;;;;18.73;12.85;;;;;;;1.73;100.00;99644.02;2186939;81;21518;-80
2022/01/26 01:11:55;;;;;;;16.20;10.90;;;;;;;1.75;100.00;99643.48;2186766;81;21022;-80
2022/01/26 01:14:52;;;;;;;23.42;14.68;;;;;;;1.76;100.00;99636.56;2185836;81;21085;-80
2022/01/26 01:18:03;;;;;;;22.60;13.85;;;;;;;1.77;100.00;99639.04;2186810;81;21111;-81
2022/01/26 01:33:25;;;;;;;24.65;14.40;;;;;;;1.83;100.00;99639.08;2186680;81;21014;-81
2022/01/26 01:36:23;;;;;;;20.92;12.50;;;;;;;1.82;100.00;99634.84;2185972;81;21544;-82
2022/01/26 01:39:23;;;;;;;17.32;10.90;;;;;;;1.79;100.00;99632.02;2186674;81;21634;-82
2022/01/26 01:42:24;;;;;;;19.90;12.63;;;;;;;1.81;100.00;99626.27;2186750;81;21021;-81
2022/01/26 01:45:25;;;;;;;19.27;13.53;;;;;;;1.82;100.00;99624.05;2186728;81;21078;-81
2022/01/26 01:48:28;;;;;;;20.37;13.15;;;;;;;1.84;100.00;99629.14;2186418;81;21118;-83
2022/01/26 01:51:33;;;;;;;14.95;10.10;;;;;;;1.83;100.00;99621.86;2186783;81;21094;-83
2022/01/26 01:54:32;;;;;;;13.43;9.43;;;;;;;1.82;100.00;99621.47;2186201;81;21490;-83
2022/01/26 01:57:33;;;;;;;18.67;11.93;;;;;;;1.79;100.00;99622.97;2186663;81;21098;-83
2022/01/26 02:00:33;;;;;;;15.70;11.03;;;;;;;1.82;100.00;99612.89;2186888;81;21009;-83
2022/01/26 02:03:34;;;;;;;17.10;10.63;;;;;;;1.84;100.00;99620.10;2186655;81;21057;-84
2022/01/26 02:06:35;;;;;;;17.85;11.30;;;;;;;1.87;100.00;99615.55;2186795;81;22105;-84
2022/01/26 02:09:36;;;;;;;18.62;12.35;;;;;;;1.88;100.00;99621.07;2186696;81;20997;-84
2022/01/26 02:12:43;;;;;;;18.98;12.75;;;;;;;1.90;100.00;99617.09;2186816;81;21446;-85
2022/01/26 02:15:48;;;;;;;17.62;11.20;;;;;;;1.94;100.00;99615.97;2185766;81;21066;-83
2022/01/26 03:01:06;;;;;;;10.68;7.62;;;;;;;2.11;100.00;99600.62;2184070;81;21671;-82
2022/01/26 03:10:08;;;;;;;11.53;8.60;;;;;;;2.10;100.00;99593.78;2184013;81;21522;-84
2022/01/26 03:13:12;;;;;;;10.93;8.65;;;;;;;2.13;100.00;99591.84;2183400;81;22168;-83
2022/01/26 03:16:23;;;;;;;11.90;8.78;;;;;;;2.14;100.00;99592.66;2182931;81;21558;-83
2022/01/26 03:35:02;;;;;;;16.30;9.28;;;;;;;1.99;100.00;99590.64;2184098;81;21562;-84
2022/01/26 03:38:04;;;;;;;15.60;9.40;;;;;;;2.00;100.00;99595.70;2184183;81;21031;-84
2022/01/26 03:41:18;;;;;;;16.40;9.80;;;;;;;2.01;100.00;99588.77;2184161;81;20994;-84
2022/01/26 03:44:11;;;;;;;13.03;9.48;;;;;;;2.03;100.00;99586.94;2182551;81;21550;-84
2022/01/26 03:47:12;;;;;;;13.68;9.05;;;;;;;2.05;100.00;99590.23;2184332;81;21077;-84
2022/01/26 03:50:13;;;;;;;17.62;11.08;;;;;;;2.04;100.00;99596.80;2178437;81;21010;-84
2022/01/26 03:53:13;;;;;;;23.62;10.08;;;;;;;2.03;100.00;99581.77;2178366;82;21543;-84
2022/01/26 03:56:14;;;;;;;17.67;10.72;;;;;;;2.06;100.00;99581.55;2178224;82;20989;-84
2022/01/26 03:59:15;;;;;;;18.55;10.93;;;;;;;2.05;100.00;99573.44;2178405;82;21560;-84
2022/01/26 04:02:16;;;;;;;18.10;11.22;;;;;;;2.11;100.00;99583.84;2178119;82;21044;-85
2022/01/26 04:05:17;;;;;;;16.50;11.53;;;;;;;2.13;100.00;99574.22;2178115;82;21042;-85
2022/01/26 04:08:27;;;;;;;13.80;9.05;;;;;;;2.17;100.00;99574.35;2178328;82;21068;-86
2022/01/26 04:14:26;;;;;;;12.23;8.10;;;;;;;2.16;100.00;99576.58;2178285;82;20970;-86
2022/01/26 04:17:23;;;;;;;12.45;8.65;;;;;;;2.12;100.00;99565.64;2177710;82;21001;-84
2022/01/26 04:20:28;;;;;;;12.90;8.20;;;;;;;2.13;100.00;99564.70;2178298;82;21077;-83
2022/01/26 04:23:42;;;;;;;13.10;9.38;;;;;;;2.13;100.00;99568.58;2177655;82;21571;-86
2022/01/26 04:26:43;;;;;;;13.98;8.53;;;;;;;2.14;100.00;99574.58;2175955;82;21044;-84
2022/01/26 04:29:38;;;;;;;10.82;7.03;;;;;;;2.11;100.00;99573.50;2176361;82;21093;-83
2022/01/26 04:32:39;;;;;;;12.18;8.28;;;;;;;2.07;100.00;99568.17;2178332;82;21517;-84
2022/01/26 04:35:43;;;;;;;13.80;10.25;;;;;;;2.07;100.00;99570.75;2178183;82;21021;-84
2022/01/26 04:38:48;;;;;;;10.93;7.85;;;;;;;2.06;100.00;99570.39;2164811;82;21613;-84
2022/01/26 04:42:09;;;;;;;13.20;8.13;;;;;;;2.09;100.00;99570.17;2164393;82;21085;-84
2022/01/26 04:44:58;;;;;;;13.08;8.53;;;;;;;2.09;100.00;99577.45;2155653;82;21069;-83
2022/01/26 04:47:53;;;;;;;12.05;8.40;;;;;;;2.12;100.00;99569.52;2163990;81;21082;-84
2022/01/26 04:50:54;;;;;;;9.70;7.17;;;;;;;2.17;100.00;99566.13;2165096;82;21468;-84
2022/01/26 04:53:54;;;;;;;12.07;7.65;;;;;;;2.18;100.00;99559.20;2141971;82;21006;-84
2022/01/26 04:56:55;;;;;;;10.78;7.45;;;;;;;2.20;100.00;99554.78;2165029;82;21048;-84
2022/01/26 04:59:56;;;;;;;10.20;8.50;;;;;;;2.21;100.00;99557.25;2166612;82;21113;-82
2022/01/26 05:02:57;;;;;;;11.22;6.92;;;;;;;2.20;100.00;99556.90;2169135;82;20981;-84
2022/01/26 05:05:58;;;;;;;11.53;7.85;;;;;;;2.20;100.00;99556.08;2165511;82;21002;-84
2022/01/26 05:08:58;;;;;;;10.85;8.30;;;;;;;2.21;100.00;99552.09;2165010;82;21009;-84
2022/01/26 05:12:01;;;;;;;9.38;7.17;;;;;;;2.18;100.00;99545.81;2165091;82;21012;-84
2022/01/26 05:15:02;;;;;;;9.85;7.58;;;;;;;2.18;100.00;99545.81;2164928;82;21085;-84
2022/01/26 05:18:05;;;;;;;12.30;8.23;;;;;;;2.17;100.00;99542.05;2165105;82;21482;-84
2022/01/26 05:21:05;;;;;;;15.25;8.10;;;;;;;2.16;100.00;99545.58;2165163;82;21082;-83
2022/01/26 05:24:06;;;;;;;12.98;8.98;;;;;;;2.13;100.00;99545.80;2165065;82;20994;-83
2022/01/26 05:27:07;;;;;;;11.70;8.15;;;;;;;2.11;100.00;99545.91;2165208;82;21053;-83
2022/01/26 05:30:08;;;;;;;13.15;9.50;;;;;;;2.09;100.00;99545.16;2165164;82;21020;-83
2022/01/26 05:33:09;;;;;;;11.57;8.68;;;;;;;2.06;100.00;99545.84;2164971;82;21050;-84
2022/01/26 05:36:09;;;;;;;14.10;9.65;;;;;;;2.00;100.00;99545.80;2165175;82;21294;-83
2022/01/26 05:39:10;;;;;;;13.88;9.25;;;;;;;2.01;100.00;99546.15;2164950;82;21042;-84
2022/01/26 05:42:11;;;;;;;12.50;9.10;;;;;;;2.01;100.00;99539.69;2165937;82;20943;-83
2022/01/26 05:45:36;;;;;;;12.45;8.68;;;;;;;2.02;100.00;99542.66;2167840;82;21020;-83
2022/01/26 05:48:15;;;;;;;11.55;7.50;;;;;;;2.00;100.00;99542.73;2157654;81;21094;-83
2022/01/26 05:51:16;;;;;;;9.18;6.62;;;;;;;1.96;100.00;99540.02;2185081;81;21109;-84
2022/01/26 05:54:17;;;;;;;13.95;9.55;;;;;;;1.95;100.00;99542.25;2183906;80;21438;-84
2022/01/26 05:57:18;;;;;;;9.73;8.53;;;;;;;1.96;100.00;99526.28;2183818;81;21006;-83
2022/01/26 06:00:18;;;;;;;12.15;8.73;;;;;;;1.97;100.00;99528.75;2183674;81;20963;-83
2022/01/26 06:03:19;;;;;;;14.00;9.68;;;;;;;1.97;100.00;99536.50;2183419;81;20963;-84
2022/01/26 06:06:20;;;;;;;14.33;9.08;;;;;;;1.98;100.00;99534.75;2183897;81;21002;-83
2022/01/26 06:09:21;;;;;;;14.63;9.40;;;;;;;2.01;100.00;99529.36;2183806;81;21057;-82
2022/01/26 06:12:22;;;;;;;15.00;9.88;;;;;;;2.00;100.00;99533.70;2183832;81;20998;-84
2022/01/26 06:15:23;;;;;;;12.98;9.33;;;;;;;1.98;100.00;99538.63;2183638;81;20954;-84
2022/01/26 06:18:23;;;;;;;10.82;7.80;;;;;;;1.95;100.00;99529.33;2183495;81;21306;-84
2022/01/26 06:21:24;;;;;;;9.98;8.15;;;;;;;1.94;100.00;99531.55;2183868;81;21037;-84
2022/01/26 06:24:25;;;;;;;7.85;6.17;;;;;;;1.95;100.00;99529.80;2183818;81;20978;-83
2022/01/26 06:27:26;;;;;;;9.50;7.45;;;;;;;1.97;100.00;99543.43;2184351;81;21050;-84
2022/01/26 06:30:27;;;;;;;10.68;8.38;;;;;;;1.97;100.00;99538.27;2183547;81;20998;-84
2022/01/26 06:33:28;;;;;;;10.43;8.08;;;;;;;1.97;100.00;99535.68;2184032;80;20990;-84
2022/01/26 06:36:29;;;;;;;10.98;6.95;;;;;;;1.97;100.00;99530.05;2183486;81;20978;-84
2022/01/26 06:39:30;;;;;;;9.45;8.03;;;;;;;1.98;100.00;99526.53;2183752;81;21037;-84
2022/01/26 06:42:37;;;;;;;10.48;7.35;;;;;;;1.95;100.00;99523.34;2183721;81;21024;-84
2022/01/26 06:45:37;;;;;;;10.70;7.20;;;;;;;1.95;100.00;99524.63;2182815;81;21050;-84
2022/01/26 06:51:55;;;;;;;8.73;6.92;;;;;;;1.93;100.00;99526.03;2186734;81;21071;-84
2022/01/26 06:54:56;;;;;;;9.45;7.75;;;;;;;1.96;100.00;99525.81;2186766;81;21545;-84
2022/01/26 06:57:57;;;;;;;11.08;8.30;;;;;;;1.98;100.00;99520.54;2186692;81;21023;-84
2022/01/26 07:00:57;;;;;;;13.05;8.98;;;;;;;1.94;100.00;99530.27;2186756;81;21009;-83
2022/01/26 07:03:58;;;;;;;11.97;8.70;;;;;;;1.90;100.00;99530.09;2186747;81;21051;-83
2022/01/26 07:06:59;;;;;;;13.22;9.90;;;;;;;1.89;100.00;99523.28;2187407;81;20959;-84
2022/01/26 07:10:00;;;;;;;13.30;10.32;;;;;;;1.92;100.00;99528.70;2186820;81;21013;-84
2022/01/26 07:13:02;;;;;;;14.98;9.75;;;;;;;1.92;100.00;99533.42;2187210;81;21003;-84
2022/01/26 07:22:41;;;;;;;25.62;16.35;;;;;;;1.97;100.00;99530.52;2187215;81;20994;-84
2022/01/26 07:25:42;;;;;;;22.10;14.13;;;;;;;1.98;100.00;99535.56;2187433;81;20970;-83
2022/01/26 07:28:43;;;;;;;26.02;16.62;;;;;;;2.05;100.00;99537.27;2187461;81;21041;-84
2022/01/26 07:31:47;;;;;;;22.13;15.10;;;;;;;2.06;100.00;99539.39;2187836;81;20955;-87
2022/01/26 07:34:47;;;;;;;25.00;15.28;;;;;;;2.07;100.00;99536.70;2187070;81;20995;-88
2022/01/26 07:37:48;;;;;;;22.98;14.87;;;;;;;2.03;100.00;99540.44;2189536;81;20986;-88
2022/01/26 07:40:49;;;;;;;22.55;15.93;;;;;;;2.06;100.00;99536.34;2190660;81;21394;-83
2022/01/26 07:43:50;;;;;;;19.55;13.85;;;;;;;2.11;100.00;99540.73;2187937;81;21006;-84
2022/01/26 07:46:51;;;;;;;20.88;14.38;;;;;;;2.16;100.00;99541.70;2187362;81;21011;-83
2022/01/26 07:49:56;;;;;;;19.12;12.73;;;;;;;2.18;100.00;99539.36;2187135;81;21014;-83
2022/01/26 07:52:59;;;;;;;20.77;13.43;;;;;;;2.28;100.00;99539.55;2187144;81;20943;-84
2022/01/26 07:55:59;;;;;;;17.60;12.15;;;;;;;2.33;100.00;99537.48;2187150;81;21042;-84
2022/01/26 07:59:00;;;;;;;15.75;11.63;;;;;;;2.33;100.00;99532.31;2186923;81;21033;-84
2022/01/26 08:02:01;;;;;;;13.90;10.15;;;;;;;2.33;100.00;99532.78;2186787;81;20955;-84
2022/01/26 08:05:02;;;;;;;16.17;10.58;;;;;;;2.37;100.00;99538.08;2186780;81;21101;-84
2022/01/26 08:08:03;;;;;;;15.93;9.63;;;;;;;2.38;100.00;99534.13;2186869;81;21075;-82
2022/01/26 08:11:04;;;;;;;12.98;9.98;;;;;;;2.36;100.00;99535.96;2187009;81;21006;-83
2022/01/26 08:14:04;;;;;;;14.35;10.93;;;;;;;2.35;100.00;99540.77;2186818;81;21051;-84
2022/01/26 08:17:06;;;;;;;18.07;12.03;;;;;;;2.38;100.00;99539.29;2186462;81;21062;-83
2022/01/26 08:20:08;;;;;;;16.62;10.68;;;;;;;2.45;100.00;99536.61;2186838;81;20989;-84
2022/01/26 08:23:09;;;;;;;13.58;9.43;;;;;;;2.51;100.00;99527.14;2186596;81;20986;-85
2022/01/26 08:26:09;;;;;;;13.55;10.60;;;;;;;2.56;100.00;99531.53;2186885;81;21077;-86
2022/01/26 08:29:17;;;;;;;17.98;11.57;;;;;;;2.62;100.00;99531.54;2186792;81;21069;-84
2022/01/26 08:32:13;;;;;;;22.70;13.78;;;;;;;2.72;100.00;99536.88;2185975;81;21482;-88
2022/01/26 08:35:14;;;;;;;21.30;11.20;;;;;;;2.76;100.00;99543.03;2187009;81;21014;-92
2022/01/26 08:38:15;;;;;;;14.25;9.98;;;;;;;2.82;100.00;99546.45;2187101;81;21002;-90
2022/01/26 08:41:16;;;;;;;17.23;11.03;;;;;;;2.93;100.00;99543.59;2187407;81;21600;-88
2022/01/26 08:44:17;;;;;;;12.95;9.80;;;;;;;3.07;100.00;99553.28;2187045;81;21053;-90
2022/01/26 08:47:17;;;;;;;14.55;11.00;;;;;;;3.21;100.00;99551.47;2187006;81;21593;-90
2022/01/26 08:50:18;;;;;;;13.83;10.05;;;;;;;3.39;100.00;99548.81;2185585;81;21121;-88
2022/01/26 08:53:19;;;;;;;13.95;9.88;;;;;;;3.46;100.00;99540.92;2184137;80;20970;-83
2022/01/26 08:56:20;;;;;;;12.85;9.70;;;;;;;3.52;100.00;99546.95;2183513;81;21030;-86
2022/01/26 08:59:21;;;;;;;9.78;7.80;;;;;;;3.62;100.00;99546.61;2183911;81;20966;-86
2022/01/26 09:02:22;;;;;;;12.28;7.75;;;;;;;3.74;100.00;99551.33;2163030;81;21066;-89
2022/01/26 09:05:23;;;;;;;10.10;8.45;;;;;;;3.81;100.00;99556.88;2185217;81;20990;-86
2022/01/26 09:08:26;;;;;;;9.50;8.15;;;;;;;3.80;100.00;99552.17;2187452;80;21026;-86
2022/01/26 09:11:27;;;;;;;8.55;7.35;;;;;;;3.86;100.00;99555.61;2184601;81;21604;-86
2022/01/26 09:14:30;;;;;;;8.83;7.33;;;;;;;3.88;100.00;99552.42;2185068;81;21013;-88
2022/01/26 09:17:33;;;;;;;8.75;6.95;;;;;;;3.91;100.00;99548.77;2185006;81;21010;-87
2022/01/26 09:20:36;;;;;;;9.18;7.58;;;;;;;3.91;100.00;99557.83;2184115;81;21029;-88
2022/01/26 09:23:36;;;;;;;9.18;8.20;;;;;;;3.97;100.00;99562.56;2185230;81;21029;-89
2022/01/26 09:26:37;;;;;;;8.43;7.58;;;;;;;4.00;100.00;99561.02;2184087;81;21034;-89
2022/01/26 09:29:38;;;;;;;13.10;8.30;;;;;;;4.05;100.00;99558.09;2184423;81;20978;-89
2022/01/26 09:32:39;;;;;;;9.73;7.78;;;;;;;4.08;100.00;99561.27;2183976;81;21027;-87
2022/01/26 09:35:39;;;;;;;10.08;8.13;;;;;;;4.08;100.00;99563.03;2184401;81;20978;-88
2022/01/26 09:38:40;;;;;;;11.00;7.47;;;;;;;3.99;100.00;99566.67;2184194;80;21047;-87
2022/01/26 09:41:41;;;;;;;11.05;8.60;;;;;;;3.94;100.00;99562.33;2183722;81;20967;-90
2022/01/26 09:44:42;;;;;;;9.93;7.72;;;;;;;3.89;100.00;99558.42;2184071;81;21570;-86
2022/01/26 09:47:43;;;;;;;10.58;8.23;;;;;;;3.84;100.00;99554.05;2184205;80;21550;-86
2022/01/26 09:50:45;;;;;;;11.18;8.60;;;;;;;3.78;100.00;99550.18;2173818;81;21097;-86
2022/01/26 09:53:46;;;;;;;12.73;8.40;;;;;;;3.75;100.00;99554.75;2165585;82;21014;-86
2022/01/26 09:56:49;;;;;;;9.85;8.50;;;;;;;3.70;100.00;99555.11;2141833;82;21085;-87
2022/01/26 09:59:50;;;;;;;11.93;9.33;;;;;;;3.69;100.00;99553.46;2165310;82;21548;-88
2022/01/26 10:02:51;;;;;;;14.28;9.65;;;;;;;3.63;100.00;99549.55;2165197;82;21005;-88
2022/01/26 10:05:52;;;;;;;12.43;9.03;;;;;;;3.61;100.00;99546.73;2165091;82;21045;-89
2022/01/26 10:09:12;;;;;;;13.60;8.95;;;;;;;3.60;100.00;99539.91;2165125;82;20962;-89
2022/01/26 10:18:26;;;;;;;11.60;9.25;;;;;;;3.79;100.00;99534.98;2166010;82;21604;-86
2022/01/26 10:21:27;;;;;;;14.35;9.25;;;;;;;3.80;100.00;99530.16;2165501;82;21022;-89
2022/01/26 10:24:33;;;;;;;11.08;9.63;;;;;;;3.82;100.00;99535.21;2165979;82;20985;-87
2022/01/26 10:27:33;;;;;;;14.45;10.93;;;;;;;3.89;100.00;99515.67;2166245;82;21596;-89
2022/01/26 10:30:34;;;;;;;14.85;9.85;;;;;;;3.93;100.00;99510.16;2165330;82;20965;-89
2022/01/26 10:33:35;;;;;;;16.55;10.72;;;;;;;3.95;100.00;99509.56;2165715;82;21502;-87
2022/01/26 10:36:36;;;;;;;21.12;12.50;;;;;;;3.96;100.00;99506.02;2165873;82;20990;-89
2022/01/26 10:39:48;;;;;;;19.05;13.13;;;;;;;4.02;100.00;99509.89;2143212;82;20993;-86
2022/01/26 10:42:42;;;;;;;13.05;10.68;;;;;;;4.01;100.00;99506.95;2164056;82;21064;-85
2022/01/26 10:49:05;;;;;;;9.68;8.10;;;;;;;3.95;100.00;99502.26;2164830;82;21069;-85
2022/01/26 10:54:50;;;;;;;12.80;9.80;;;;;;;4.01;100.00;99499.17;2186476;81;21030;-86
2022/01/26 10:57:51;;;;;;;9.25;8.30;;;;;;;4.00;100.00;99495.76;2186986;81;21529;-85
2022/01/26 11:00:54;;;;;;;9.15;7.83;;;;;;;3.97;100.00;99501.66;2186777;81;21017;-86
2022/01/26 11:03:54;;;;;;;8.05;7.12;;;;;;;3.94;100.00;99496.25;2186650;81;21089;-85
2022/01/26 11:06:55;;;;;;;8.35;6.95;;;;;;;3.83;100.00;99490.23;2186621;81;21031;-86
2022/01/26 11:09:56;;;;;;;8.35;6.85;;;;;;;3.85;100.00;99493.55;2186933;81;21061;-85
2022/01/26 11:12:56;;;;;;;8.73;7.28;;;;;;;3.85;100.00;99486.60;2187049;81;20994;-85
2022/01/26 11:15:57;;;;;;;14.63;6.83;;;;;;;3.90;100.00;99484.46;2186731;81;21066;-86
2022/01/26 11:18:58;;;;;;;9.25;6.80;;;;;;;3.85;100.00;99481.42;2186826;81;20974;-85
2022/01/26 11:21:59;;;;;;;7.40;6.70;;;;;;;3.81;100.00;99481.28;2186783;81;21006;-86
2022/01/26 11:25:00;;;;;;;7.50;6.65;;;;;;;3.80;100.00;99470.57;2186837;81;21195;-85
2022/01/26 11:28:02;;;;;;;7.95;7.00;;;;;;;3.76;100.00;99480.00;2186807;81;21101;-86
2022/01/26 11:31:05;;;;;;;6.87;6.10;;;;;;;3.74;100.00;99474.09;2186930;81;21003;-86
2022/01/26 11:34:06;;;;;;;9.18;7.60;;;;;;;3.69;100.00;99476.58;2186840;81;21569;-86
2022/01/26 11:37:07;;;;;;;14.07;10.13;;;;;;;3.60;100.00;99463.03;2186863;81;21010;-87
2022/01/26 11:46:45;;;;;;;7.83;6.70;;;;;;;3.43;100.00;99460.42;2186645;81;21168;-84
2022/01/26 11:49:46;;;;;;;10.43;8.18;;;;;;;3.42;100.00;99457.48;2186566;81;21465;-85
2022/01/26 11:52:47;;;;;;;9.83;6.80;;;;;;;3.38;100.00;99466.88;2186696;81;20931;-86
2022/01/26 11:55:49;;;;;;;8.95;7.37;;;;;;;3.36;100.00;99459.70;2186966;81;21057;-85
2022/01/26 11:58:53;;;;;;;8.70;7.33;;;;;;;3.32;100.00;99457.01;2187413;81;21018;-88
2022/01/26 12:02:07;;;;;;;7.00;6.33;;;;;;;3.31;100.00;99451.01;2187476;81;21514;-87
2022/01/26 12:05:11;;;;;;;9.95;6.47;;;;;;;3.32;100.00;99451.83;2187359;81;21069;-88
2022/01/26 12:08:10;;;;;;;7.25;6.45;;;;;;;3.29;100.00;99451.60;2187656;81;21148;-87
2022/01/26 12:11:11;;;;;;;8.28;7.28;;;;;;;3.23;100.00;99448.17;2187737;81;21466;-87
2022/01/26 12:14:18;;;;;;;10.85;7.40;;;;;;;3.23;100.00;99444.28;2187201;81;21042;-87
2022/01/26 12:17:17;;;;;;;7.90;5.65;;;;;;;3.20;100.00;99439.35;2186205;81;21540;-87
2022/01/26 12:33:55;;;;;;;9.45;7.20;;;;;;;3.23;100.00;99419.70;2187196;81;21014;-86
2022/01/26 12:36:38;;;;;;;9.40;7.37;;;;;;;3.22;100.00;99416.76;2183281;81;21118;-88
2022/01/26 12:43:02;;;;;;;8.00;7.08;;;;;;;3.24;100.00;99415.34;2189721;81;21009;-89
2022/01/26 12:45:56;;;;;;;9.30;7.58;;;;;;;3.19;100.00;99420.84;2190169;81;21003;-87
2022/01/26 12:48:58;;;;;;;8.55;7.55;;;;;;;3.19;100.00;99419.55;2191019;79;21050;-87
2022/01/26 12:51:59;;;;;;;9.75;6.75;;;;;;;3.20;100.00;99419.94;2189130;81;21007;-87
2022/01/26 12:55:00;;;;;;;9.30;6.05;;;;;;;3.22;100.00;99419.34;2190410;81;21054;-87
2022/01/26 12:58:00;;;;;;;7.55;6.42;;;;;;;3.18;100.00;99414.03;2187921;81;21501;-88
2022/01/26 13:01:01;;;;;;;11.28;8.05;;;;;;;3.12;100.00;99419.69;2187861;81;22161;-88
2022/01/26 13:04:02;;;;;;;9.10;7.37;;;;;;;3.07;100.00;99408.38;2187667;81;20986;-88
2022/01/26 13:07:03;;;;;;;10.72;8.05;;;;;;;3.07;100.00;99418.72;2187799;81;20978;-87
2022/01/26 13:10:04;;;;;;;10.18;7.90;;;;;;;3.09;100.00;99431.07;2188356;81;21046;-90
2022/01/26 13:13:04;;;;;;;10.38;7.85;;;;;;;3.07;100.00;99420.02;2188123;81;21040;-88
2022/01/26 13:16:11;;;;;;;11.70;8.05;;;;;;;3.08;100.00;99417.78;2188064;81;20998;-89
2022/01/26 13:19:29;;;;;;;8.80;7.42;;;;;;;3.07;100.00;99417.42;2187237;81;21029;-89
2022/01/26 13:32:17;;;;;;;8.20;7.08;;;;;;;3.03;100.00;99410.02;2187580;81;21521;-86
2022/01/26 13:41:21;;;;;;;5.95;5.35;;;;;;;3.01;100.00;99397.17;2189829;81;21050;-88
2022/01/26 13:54:23;;;;;;;7.80;6.25;;;;;;;3.02;100.00;99405.80;2185648;81;21047;-87
2022/01/26 13:57:27;;;;;;;8.10;6.70;;;;;;;3.01;100.00;99401.06;2181204;81;21058;-87
2022/01/26 14:00:14;;;;;;;12.73;8.43;;;;;;;3.05;100.00;99401.67;2181183;81;21069;-86
2022/01/26 14:03:17;;;;;;;7.90;7.03;;;;;;;3.05;100.00;99400.38;2184220;81;21485;-87
2022/01/26 14:06:17;;;;;;;6.97;6.37;;;;;;;2.99;100.00;99400.83;2184387;80;21137;-86
2022/01/26 14:09:19;;;;;;;10.35;8.35;;;;;;;2.94;100.00;99396.48;2183850;81;21565;-86
2022/01/26 14:12:26;;;;;;;7.65;6.75;;;;;;;2.89;100.00;99396.81;2184883;81;20963;-85
2022/01/26 14:15:35;;;;;;;6.60;5.97;;;;;;;2.84;100.00;99397.17;2166422;81;21027;-85
2022/01/26 14:21:40;;;;;;;7.95;6.55;;;;;;;2.78;100.00;99400.67;2184974;81;21545;-87
2022/01/26 14:25:04;;;;;;;10.60;7.25;;;;;;;2.76;100.00;99398.20;2020588;87;21103;-84
2022/01/26 14:27:56;;;;;;;10.38;8.13;;;;;;;2.73;100.00;99401.46;1985228;88;21140;-85
2022/01/26 15:10:38;;;;;;;6.03;5.40;;;;;;;2.66;100.00;99391.23;1958427;91;21079;-86
2022/01/26 15:33:11;;;;;;;7.55;6.10;;;;;;;2.54;100.00;99398.11;2057951;87;21100;-85
2022/01/26 15:58:15;;;;;;;;;;;;;;;2.46;100.00;99406.42;2095084;85;21104;-84
2022/01/26 16:07:47;;;;;;;18.17;12.30;;;;;;;2.28;100.00;99407.27;2092304;85;21156;-83
2022/01/26 18:15:39;;;;;;;22.40;13.68;;;;;;;2.13;100.00;99399.34;1988468;88;21063;-84
2022/01/26 18:25:52;;;;;;;25.30;16.42;;;;;;;2.14;100.00;99391.95;1982718;88;21058;-86
2022/01/26 18:51:43;;;;;;;16.75;11.40;;;;;;;1.82;100.00;99364.98;2143438;82;21077;-87
2022/01/26 18:54:44;;;;;;;14.07;10.15;;;;;;;1.82;100.00;99374.02;2121029;83;21009;-84
2022/01/26 18:57:45;;;;;;;16.25;11.22;;;;;;;1.81;100.00;99368.03;2123386;83;20954;-84
2022/01/26 19:00:46;;;;;;;18.23;12.20;;;;;;;1.78;100.00;99376.48;2122923;83;21529;-84
2022/01/26 19:03:47;;;;;;;15.38;10.60;;;;;;;1.77;100.00;99381.28;2119851;83;20943;-84
2022/01/26 19:06:51;;;;;;;13.25;10.10;;;;;;;1.77;100.00;99373.54;2120193;83;21065;-84
2022/01/26 19:09:51;;;;;;;15.60;10.45;;;;;;;1.74;100.00;99364.26;2139479;83;21087;-84
2022/01/26 19:12:52;;;;;;;13.75;10.48;;;;;;;1.71;100.00;99364.45;2142535;82;21521;-84
2022/01/26 19:15:57;;;;;;;14.40;10.50;;;;;;;1.71;100.00;99360.11;2143508;82;21039;-83
2022/01/26 19:19:09;;;;;;;17.30;12.40;;;;;;;1.73;100.00;99377.25;2143556;82;21658;-82
2022/01/26 19:28:27;;;;;;;16.73;10.43;;;;;;;1.81;100.00;99365.45;2156241;83;21588;-82
2022/01/26 19:44:45;;;;;;;15.28;10.05;;;;;;;1.94;100.00;99366.25;2156175;83;21117;-84
2022/01/26 19:53:46;;;;;;;16.90;11.08;;;;;;;1.81;100.00;99369.80;2153866;82;21074;-82
2022/01/26 19:56:47;;;;;;;22.25;12.85;;;;;;;1.78;100.00;99373.89;2153087;83;21001;-83
2022/01/26 19:59:48;;;;;;;19.27;11.25;;;;;;;1.68;100.00;99373.25;2153110;82;21077;-84
2022/01/26 20:02:49;;;;;;;20.02;12.53;;;;;;;1.63;100.00;99364.98;2153486;82;20966;-83
2022/01/26 20:05:54;;;;;;;14.63;10.25;;;;;;;1.58;100.00;99369.66;2152597;83;21049;-84
2022/01/26 20:09:07;;;;;;;15.90;10.53;;;;;;;1.56;100.00;99373.29;2117311;84;21077;-82
2022/01/26 20:12:03;;;;;;;13.93;11.15;;;;;;;1.54;100.00;99357.88;2148648;81;21645;-84
2022/01/26 20:15:03;;;;;;;13.70;9.03;;;;;;;1.50;100.00;99355.17;2183422;81;21050;-84
2022/01/26 20:18:03;;;;;;;15.90;9.68;;;;;;;1.45;100.00;99356.41;2183802;81;20986;-84
2022/01/26 20:21:04;;;;;;;19.20;10.50;;;;;;;1.38;100.00;99358.61;2184187;81;21009;-83
2022/01/26 20:24:05;;;;;;;19.92;11.22;;;;;;;1.34;100.00;99357.15;2180385;81;21077;-84
2022/01/26 20:27:08;;;;;;;19.85;12.00;;;;;;;1.31;100.00;99363.36;2148293;82;21607;-84
2022/01/26 20:30:13;;;;;;;19.40;11.33;;;;;;;1.30;100.00;99356.55;2116205;84;21588;-83
2022/01/26 20:33:11;;;;;;;15.03;9.48;;;;;;;1.28;100.00;99373.90;2115863;84;21061;-83
2022/01/26 20:36:11;;;;;;;15.38;10.63;;;;;;;1.27;100.00;99374.80;2117041;83;21556;-84
2022/01/26 20:39:12;;;;;;;24.47;13.95;;;;;;;1.27;100.00;99382.53;2116820;84;21026;-84
2022/01/26 20:42:13;;;;;;;19.57;11.08;;;;;;;1.27;100.00;99375.27;2117201;84;20981;-84
2022/01/26 20:45:20;;;;;;;16.65;11.60;;;;;;;1.24;100.00;99368.56;2119209;84;21040;-83
2022/01/26 20:48:17;;;;;;;17.00;11.90;;;;;;;1.24;100.00;99362.12;2117784;84;21006;-83
2022/01/26 20:51:17;;;;;;;21.85;11.65;;;;;;;1.21;100.00;99364.91;2117186;84;21069;-84
2022/01/26 20:54:20;;;;;;;14.70;9.70;;;;;;;1.21;100.00;99354.59;2122938;82;21014;-84
2022/01/26 20:57:21;;;;;;;15.35;11.40;;;;;;;1.17;100.00;99355.72;2159330;82;21038;-83
2022/01/26 21:00:22;;;;;;;16.67;11.57;;;;;;;1.16;100.00;99370.84;2158952;82;21012;-83
2022/01/26 21:03:23;;;;;;;16.15;12.10;;;;;;;1.19;100.00;99356.90;2158922;82;20970;-83
2022/01/26 21:06:23;;;;;;;11.73;9.20;;;;;;;1.21;100.00;99356.35;2148924;82;21032;-83
2022/01/26 21:09:24;;;;;;;13.05;10.50;;;;;;;1.24;100.00;99355.67;2122794;83;21033;-83
2022/01/26 21:12:26;;;;;;;16.00;10.98;;;;;;;1.24;100.00;99349.22;2122450;83;21009;-84
2022/01/26 21:15:28;;;;;;;15.32;11.00;;;;;;;1.26;100.00;99341.37;2122261;84;20977;-84
2022/01/26 21:18:31;;;;;;;13.85;9.98;;;;;;;1.22;100.00;99342.05;2159674;81;21040;-87
2022/01/26 21:21:32;;;;;;;17.42;11.88;;;;;;;1.20;100.00;99347.79;2161611;81;21013;-84
2022/01/26 21:24:33;;;;;;;14.87;11.60;;;;;;;1.21;100.00;99342.16;2152796;81;20926;-83